sensor_id;sensor_type;location;lat;lon;timestamp;temperature;humidity
21823;DHT22;11074;48.596;9.238;2022-10-15T00:02:13;14.90;99.90
21823;DHT22;11074;48.596;9.238;2022-10-15T00:04:39;14.90;99.90
21823;DHT22;11074;48.596;9.238;2022-10-15T00:07:04;14.90;99.90
21823;DHT22;11074;48.596;9.238;2022-10-15T00:09:30;14.90;99.90
21823;DHT22;11074;48.596;9.238;2022-10-15T00:11:56;14.90;99.90
21823;DHT22;11074;48.596;9.238;2022-10-15T00:14:22;14.90;99.90
21823;DHT22;11074;48.596;9.238;2022-10-15T00:16:47;14.90;99.90
21823;DHT22;11074;48.596;9.238;2022-10-15T00:19:13;14.90;99.90
21823;DHT22;11074;48.596;9.238;2022-10-15T00:21:39;14.90;99.90
21823;DHT22;11074;48.596;9.238;2022-10-15T00:24:05;14.90;99.90
21823;DHT22;11074;48.596;9.238;2022-10-15T00:26:31;14.90;99.90
21823;DHT22;11074;48.596;9.238;2022-10-15T00:28:59;14.90;99.90
21823;DHT22;11074;48.596;9.238;2022-10-15T00:31:28;14.90;99.90
21823;DHT22;11074;48.596;9.238;2022-10-15T00:33:57;15.00;99.90
21823;DHT22;11074;48.596;9.238;2022-10-15T00:36:27;14.90;99.90
21823;DHT22;11074;48.596;9.238;2022-10-15T00:38:57;15.00;99.90
21823;DHT22;11074;48.596;9.238;2022-10-15T00:41:35;14.90;99.90
21823;DHT22;11074;48.596;9.238;2022-10-15T00:46:51;14.90;99.90
21823;DHT22;11074;48.596;9.238;2022-10-15T00:49:32;14.90;99.90
21823;DHT22;11074;48.596;9.238;2022-10-15T00:52:05;14.90;99.90
21823;DHT22;11074;48.596;9.238;2022-10-15T00:54:41;14.90;99.90
21823;DHT22;11074;48.596;9.238;2022-10-15T00:57:12;14.90;99.90
21823;DHT22;11074;48.596;9.238;2022-10-15T00:59:46;14.90;99.90
21823;DHT22;11074;48.596;9.238;2022-10-15T01:02:18;14.90;99.90
21823;DHT22;11074;48.596;9.238;2022-10-15T01:04:45;15.00;99.90
21823;DHT22;11074;48.596;9.238;2022-10-15T01:07:12;15.00;99.90
21823;DHT22;11074;48.596;9.238;2022-10-15T01:09:39;15.00;99.90
21823;DHT22;11074;48.596;9.238;2022-10-15T01:12:15;15.00;99.90
21823;DHT22;11074;48.596;9.238;2022-10-15T01:14:55;15.00;99.90
21823;DHT22;11074;48.596;9.238;2022-10-15T01:17:37;15.00;99.90
21823;DHT22;11074;48.596;9.238;2022-10-15T01:20:26;15.00;99.90
21823;DHT22;11074;48.596;9.238;2022-10-15T01:30:15;15.00;99.90
21823;DHT22;11074;48.596;9.238;2022-10-15T01:33:30;15.00;99.90
21823;DHT22;11074;48.596;9.238;2022-10-15T01:35:58;15.00;99.90
21823;DHT22;11074;48.596;9.238;2022-10-15T01:38:53;15.00;99.90
21823;DHT22;11074;48.596;9.238;2022-10-15T01:41:43;15.00;99.90
21823;DHT22;11074;48.596;9.238;2022-10-15T01:44:24;14.90;99.90
21823;DHT22;11074;48.596;9.238;2022-10-15T01:47:12;14.90;99.90
21823;DHT22;11074;48.596;9.238;2022-10-15T01:49:45;14.90;99.90
21823;DHT22;11074;48.596;9.238;2022-10-15T01:52:16;14.90;99.90
21823;DHT22;11074;48.596;9.238;2022-10-15T01:54:46;14.90;99.90
21823;DHT22;11074;48.596;9.238;2022-10-15T01:57:15;14.80;99.90
21823;DHT22;11074;48.596;9.238;2022-10-15T01:59:43;14.80;99.90
21823;DHT22;11074;48.596;9.238;2022-10-15T02:02:09;14.90;99.90
21823;DHT22;11074;48.596;9.238;2022-10-15T02:04:35;14.90;99.90
21823;DHT22;11074;48.596;9.238;2022-10-15T02:19:05;14.90;99.90
21823;DHT22;11074;48.596;9.238;2022-10-15T02:21:47;14.90;99.90
21823;DHT22;11074;48.596;9.238;2022-10-15T02:24:28;14.90;99.90
21823;DHT22;11074;48.596;9.238;2022-10-15T02:27:01;14.90;99.90
21823;DHT22;11074;48.596;9.238;2022-10-15T02:29:31;14.90;99.90
21823;DHT22;11074;48.596;9.238;2022-10-15T02:32:02;14.90;99.90
21823;DHT22;11074;48.596;9.238;2022-10-15T02:34:32;14.90;99.90
21823;DHT22;11074;48.596;9.238;2022-10-15T02:37:01;14.90;99.90
21823;DHT22;11074;48.596;9.238;2022-10-15T02:39:29;14.90;99.90
21823;DHT22;11074;48.596;9.238;2022-10-15T02:41:56;14.90;99.90
21823;DHT22;11074;48.596;9.238;2022-10-15T02:44:22;14.90;99.90
21823;DHT22;11074;48.596;9.238;2022-10-15T02:46:48;14.90;99.90
21823;DHT22;11074;48.596;9.238;2022-10-15T02:49:13;14.90;99.90
21823;DHT22;11074;48.596;9.238;2022-10-15T02:51:39;14.90;99.90
21823;DHT22;11074;48.596;9.238;2022-10-15T02:54:06;14.90;99.90
21823;DHT22;11074;48.596;9.238;2022-10-15T02:56:33;14.90;99.90
21823;DHT22;11074;48.596;9.238;2022-10-15T02:58:59;14.90;99.90
21823;DHT22;11074;48.596;9.238;2022-10-15T03:01:25;15.00;99.90
21823;DHT22;11074;48.596;9.238;2022-10-15T03:03:51;15.00;99.90
21823;DHT22;11074;48.596;9.238;2022-10-15T03:06:16;15.00;99.90
21823;DHT22;11074;48.596;9.238;2022-10-15T03:08:42;15.00;99.90
21823;DHT22;11074;48.596;9.238;2022-10-15T03:11:09;15.00;99.90
21823;DHT22;11074;48.596;9.238;2022-10-15T03:13:36;15.00;99.90
21823;DHT22;11074;48.596;9.238;2022-10-15T03:16:07;15.10;99.90
21823;DHT22;11074;48.596;9.238;2022-10-15T03:18:34;15.10;99.90
21823;DHT22;11074;48.596;9.238;2022-10-15T03:21:00;15.10;99.90
21823;DHT22;11074;48.596;9.238;2022-10-15T03:23:27;15.10;99.90
21823;DHT22;11074;48.596;9.238;2022-10-15T03:25:53;15.10;99.90
21823;DHT22;11074;48.596;9.238;2022-10-15T03:28:19;15.10;99.90
21823;DHT22;11074;48.596;9.238;2022-10-15T03:30:46;15.10;99.90
21823;DHT22;11074;48.596;9.238;2022-10-15T03:33:12;15.10;99.90
21823;DHT22;11074;48.596;9.238;2022-10-15T03:35:38;15.10;99.90
21823;DHT22;11074;48.596;9.238;2022-10-15T03:38:05;15.10;99.90
21823;DHT22;11074;48.596;9.238;2022-10-15T03:40:33;15.10;99.90
21823;DHT22;11074;48.596;9.238;2022-10-15T03:42:59;15.10;99.90
21823;DHT22;11074;48.596;9.238;2022-10-15T03:45:25;15.10;99.90
21823;DHT22;11074;48.596;9.238;2022-10-15T03:47:51;15.10;99.90
21823;DHT22;11074;48.596;9.238;2022-10-15T03:50:17;15.10;99.90
21823;DHT22;11074;48.596;9.238;2022-10-15T03:52:43;15.10;99.90
21823;DHT22;11074;48.596;9.238;2022-10-15T03:55:10;15.10;99.90
21823;DHT22;11074;48.596;9.238;2022-10-15T03:57:37;15.10;99.90
21823;DHT22;11074;48.596;9.238;2022-10-15T04:00:05;15.10;99.90
21823;DHT22;11074;48.596;9.238;2022-10-15T04:02:32;15.10;99.90
21823;DHT22;11074;48.596;9.238;2022-10-15T04:04:58;15.10;99.90
21823;DHT22;11074;48.596;9.238;2022-10-15T04:07:24;15.10;99.90
21823;DHT22;11074;48.596;9.238;2022-10-15T04:09:50;15.10;99.90
21823;DHT22;11074;48.596;9.238;2022-10-15T04:12:16;15.10;99.90
21823;DHT22;11074;48.596;9.238;2022-10-15T04:14:42;15.10;99.90
21823;DHT22;11074;48.596;9.238;2022-10-15T04:17:08;15.10;99.90
21823;DHT22;11074;48.596;9.238;2022-10-15T04:19:34;15.10;99.90
21823;DHT22;11074;48.596;9.238;2022-10-15T04:22:00;15.20;99.90
21823;DHT22;11074;48.596;9.238;2022-10-15T04:24:26;15.10;99.90
21823;DHT22;11074;48.596;9.238;2022-10-15T04:26:52;15.10;99.90
21823;DHT22;11074;48.596;9.238;2022-10-15T04:29:18;15.10;99.90
21823;DHT22;11074;48.596;9.238;2022-10-15T04:31:44;15.20;99.90
21823;DHT22;11074;48.596;9.238;2022-10-15T04:34:10;15.20;99.90
21823;DHT22;11074;48.596;9.238;2022-10-15T04:36:36;15.10;99.90
21823;DHT22;11074;48.596;9.238;2022-10-15T04:39:03;15.20;99.90
21823;DHT22;11074;48.596;9.238;2022-10-15T04:41:29;15.20;99.90
21823;DHT22;11074;48.596;9.238;2022-10-15T04:43:56;15.10;99.90
21823;DHT22;11074;48.596;9.238;2022-10-15T04:46:22;15.10;99.90
21823;DHT22;11074;48.596;9.238;2022-10-15T04:48:48;15.10;99.90
21823;DHT22;11074;48.596;9.238;2022-10-15T04:51:16;15.10;99.90
21823;DHT22;11074;48.596;9.238;2022-10-15T04:53:44;15.10;99.90
21823;DHT22;11074;48.596;9.238;2022-10-15T04:56:14;15.10;99.90
21823;DHT22;11074;48.596;9.238;2022-10-15T04:58:43;15.10;99.90
21823;DHT22;11074;48.596;9.238;2022-10-15T05:01:12;15.20;99.90
21823;DHT22;11074;48.596;9.238;2022-10-15T05:03:41;15.10;99.90
21823;DHT22;11074;48.596;9.238;2022-10-15T05:06:17;15.10;99.90
21823;DHT22;11074;48.596;9.238;2022-10-15T05:08:45;15.10;99.90
21823;DHT22;11074;48.596;9.238;2022-10-15T05:11:24;15.10;99.90
21823;DHT22;11074;48.596;9.238;2022-10-15T05:13:53;15.10;99.90
21823;DHT22;11074;48.596;9.238;2022-10-15T05:16:26;15.10;99.90
21823;DHT22;11074;48.596;9.238;2022-10-15T05:19:01;15.10;99.90
21823;DHT22;11074;48.596;9.238;2022-10-15T05:21:33;15.10;99.90
21823;DHT22;11074;48.596;9.238;2022-10-15T05:24:00;15.10;99.90
21823;DHT22;11074;48.596;9.238;2022-10-15T05:26:27;15.10;99.90
21823;DHT22;11074;48.596;9.238;2022-10-15T05:28:55;15.00;99.90
21823;DHT22;11074;48.596;9.238;2022-10-15T05:31:24;15.00;99.90
21823;DHT22;11074;48.596;9.238;2022-10-15T05:33:52;15.00;99.90
21823;DHT22;11074;48.596;9.238;2022-10-15T05:38:55;15.00;99.90
21823;DHT22;11074;48.596;9.238;2022-10-15T05:41:26;15.00;99.90
21823;DHT22;11074;48.596;9.238;2022-10-15T05:43:54;15.10;99.90
21823;DHT22;11074;48.596;9.238;2022-10-15T05:46:22;15.10;99.90
21823;DHT22;11074;48.596;9.238;2022-10-15T05:48:53;15.10;99.90
21823;DHT22;11074;48.596;9.238;2022-10-15T05:51:20;15.10;99.90
21823;DHT22;11074;48.596;9.238;2022-10-15T05:53:47;15.10;99.90
21823;DHT22;11074;48.596;9.238;2022-10-15T05:56:15;15.10;99.90
21823;DHT22;11074;48.596;9.238;2022-10-15T05:58:41;15.10;99.90
21823;DHT22;11074;48.596;9.238;2022-10-15T06:01:09;15.10;99.90
21823;DHT22;11074;48.596;9.238;2022-10-15T06:03:38;15.10;99.90
21823;DHT22;11074;48.596;9.238;2022-10-15T06:06:12;15.10;99.90
21823;DHT22;11074;48.596;9.238;2022-10-15T06:08:39;15.10;99.90
21823;DHT22;11074;48.596;9.238;2022-10-15T06:11:05;15.10;99.90
21823;DHT22;11074;48.596;9.238;2022-10-15T06:13:31;15.10;99.90
21823;DHT22;11074;48.596;9.238;2022-10-15T06:15:56;15.10;99.90
21823;DHT22;11074;48.596;9.238;2022-10-15T06:18:22;15.10;99.90
21823;DHT22;11074;48.596;9.238;2022-10-15T06:20:51;15.10;99.90
21823;DHT22;11074;48.596;9.238;2022-10-15T06:23:18;15.10;99.90
21823;DHT22;11074;48.596;9.238;2022-10-15T06:25:44;15.10;99.90
21823;DHT22;11074;48.596;9.238;2022-10-15T06:28:10;15.10;99.90
21823;DHT22;11074;48.596;9.238;2022-10-15T06:30:36;15.10;99.90
21823;DHT22;11074;48.596;9.238;2022-10-15T06:33:02;15.10;99.90
21823;DHT22;11074;48.596;9.238;2022-10-15T06:35:28;15.10;99.90
21823;DHT22;11074;48.596;9.238;2022-10-15T06:38:00;15.10;99.90
21823;DHT22;11074;48.596;9.238;2022-10-15T06:40:29;15.10;99.90
21823;DHT22;11074;48.596;9.238;2022-10-15T06:42:55;15.10;99.90
21823;DHT22;11074;48.596;9.238;2022-10-15T06:45:27;15.10;99.90
21823;DHT22;11074;48.596;9.238;2022-10-15T06:47:52;15.10;99.90
21823;DHT22;11074;48.596;9.238;2022-10-15T06:50:18;15.20;99.90
21823;DHT22;11074;48.596;9.238;2022-10-15T06:52:44;15.20;99.90
21823;DHT22;11074;48.596;9.238;2022-10-15T06:55:09;15.20;99.90
21823;DHT22;11074;48.596;9.238;2022-10-15T06:57:35;15.20;99.90
21823;DHT22;11074;48.596;9.238;2022-10-15T07:00:00;15.20;99.90
21823;DHT22;11074;48.596;9.238;2022-10-15T07:02:26;15.20;99.90
21823;DHT22;11074;48.596;9.238;2022-10-15T07:04:52;15.20;99.90
21823;DHT22;11074;48.596;9.238;2022-10-15T07:07:18;15.20;99.90
21823;DHT22;11074;48.596;9.238;2022-10-15T07:09:43;15.20;99.90
21823;DHT22;11074;48.596;9.238;2022-10-15T07:12:11;15.20;99.90
21823;DHT22;11074;48.596;9.238;2022-10-15T07:14:36;15.20;99.90
21823;DHT22;11074;48.596;9.238;2022-10-15T07:17:02;15.20;99.90
21823;DHT22;11074;48.596;9.238;2022-10-15T07:19:27;15.20;99.90
21823;DHT22;11074;48.596;9.238;2022-10-15T07:21:53;15.20;99.90
21823;DHT22;11074;48.596;9.238;2022-10-15T07:24:19;15.30;99.90
21823;DHT22;11074;48.596;9.238;2022-10-15T07:26:48;15.20;99.90
21823;DHT22;11074;48.596;9.238;2022-10-15T07:29:13;15.30;99.90
21823;DHT22;11074;48.596;9.238;2022-10-15T07:31:39;15.30;99.90
21823;DHT22;11074;48.596;9.238;2022-10-15T07:34:08;15.30;99.90
21823;DHT22;11074;48.596;9.238;2022-10-15T07:36:34;15.30;99.90
21823;DHT22;11074;48.596;9.238;2022-10-15T07:39:08;15.30;99.90
21823;DHT22;11074;48.596;9.238;2022-10-15T07:41:34;15.30;99.90
21823;DHT22;11074;48.596;9.238;2022-10-15T07:44:01;15.40;99.90
21823;DHT22;11074;48.596;9.238;2022-10-15T07:46:26;15.40;99.90
21823;DHT22;11074;48.596;9.238;2022-10-15T07:48:52;15.40;99.90
21823;DHT22;11074;48.596;9.238;2022-10-15T07:51:18;15.40;99.90
21823;DHT22;11074;48.596;9.238;2022-10-15T07:53:44;15.40;99.90
21823;DHT22;11074;48.596;9.238;2022-10-15T07:56:13;15.40;99.90
21823;DHT22;11074;48.596;9.238;2022-10-15T07:58:40;15.40;99.90
21823;DHT22;11074;48.596;9.238;2022-10-15T08:01:08;15.40;99.90
21823;DHT22;11074;48.596;9.238;2022-10-15T08:03:36;15.50;99.90
21823;DHT22;11074;48.596;9.238;2022-10-15T08:06:04;15.50;99.90
21823;DHT22;11074;48.596;9.238;2022-10-15T08:08:32;15.50;99.90
21823;DHT22;11074;48.596;9.238;2022-10-15T08:11:11;15.50;99.90
21823;DHT22;11074;48.596;9.238;2022-10-15T08:13:39;15.60;99.90
21823;DHT22;11074;48.596;9.238;2022-10-15T08:16:08;15.60;99.90
21823;DHT22;11074;48.596;9.238;2022-10-15T08:18:34;15.60;99.90
21823;DHT22;11074;48.596;9.238;2022-10-15T08:21:02;15.70;99.90
21823;DHT22;11074;48.596;9.238;2022-10-15T08:23:29;15.70;99.90
21823;DHT22;11074;48.596;9.238;2022-10-15T08:25:59;15.70;99.90
21823;DHT22;11074;48.596;9.238;2022-10-15T08:28:27;15.70;99.90
21823;DHT22;11074;48.596;9.238;2022-10-15T08:30:53;15.80;99.90
21823;DHT22;11074;48.596;9.238;2022-10-15T08:33:23;15.80;99.90
21823;DHT22;11074;48.596;9.238;2022-10-15T08:35:51;15.80;99.90
21823;DHT22;11074;48.596;9.238;2022-10-15T08:38:17;15.80;99.90
21823;DHT22;11074;48.596;9.238;2022-10-15T08:40:54;15.90;99.90
21823;DHT22;11074;48.596;9.238;2022-10-15T08:43:39;16.00;99.90
21823;DHT22;11074;48.596;9.238;2022-10-15T08:46:13;16.00;99.90
21823;DHT22;11074;48.596;9.238;2022-10-15T08:48:49;16.00;99.90
21823;DHT22;11074;48.596;9.238;2022-10-15T08:51:23;16.00;99.90
21823;DHT22;11074;48.596;9.238;2022-10-15T08:53:58;16.00;99.90
21823;DHT22;11074;48.596;9.238;2022-10-15T08:56:33;16.10;99.90
21823;DHT22;11074;48.596;9.238;2022-10-15T09:01:57;16.10;99.90
21823;DHT22;11074;48.596;9.238;2022-10-15T09:09:51;16.20;99.90
21823;DHT22;11074;48.596;9.238;2022-10-15T09:15:18;16.20;99.90
21823;DHT22;11074;48.596;9.238;2022-10-15T09:17:48;16.30;99.90
21823;DHT22;11074;48.596;9.238;2022-10-15T09:20:18;16.20;99.90
21823;DHT22;11074;48.596;9.238;2022-10-15T09:22:54;16.30;99.90
21823;DHT22;11074;48.596;9.238;2022-10-15T09:25:22;16.30;99.90
21823;DHT22;11074;48.596;9.238;2022-10-15T09:27:51;16.40;99.90
21823;DHT22;11074;48.596;9.238;2022-10-15T09:33:30;16.40;99.90
21823;DHT22;11074;48.596;9.238;2022-10-15T09:39:35;16.40;99.90
21823;DHT22;11074;48.596;9.238;2022-10-15T09:44:50;16.50;99.90
21823;DHT22;11074;48.596;9.238;2022-10-15T09:47:24;16.60;99.90
21823;DHT22;11074;48.596;9.238;2022-10-15T09:49:51;16.50;99.90
21823;DHT22;11074;48.596;9.238;2022-10-15T09:57:56;16.60;99.90
21823;DHT22;11074;48.596;9.238;2022-10-15T10:03:22;16.60;99.90
21823;DHT22;11074;48.596;9.238;2022-10-15T10:05:50;16.70;99.90
21823;DHT22;11074;48.596;9.238;2022-10-15T10:08:56;16.70;99.90
21823;DHT22;11074;48.596;9.238;2022-10-15T10:11:23;16.70;99.90
21823;DHT22;11074;48.596;9.238;2022-10-15T10:13:56;16.70;99.90
21823;DHT22;11074;48.596;9.238;2022-10-15T10:16:25;16.70;99.90
21823;DHT22;11074;48.596;9.238;2022-10-15T10:19:04;16.80;99.90
21823;DHT22;11074;48.596;9.238;2022-10-15T10:21:36;16.80;99.90
21823;DHT22;11074;48.596;9.238;2022-10-15T10:24:29;16.90;99.90
21823;DHT22;11074;48.596;9.238;2022-10-15T10:27:00;16.90;99.90
21823;DHT22;11074;48.596;9.238;2022-10-15T10:29:28;16.90;99.90
21823;DHT22;11074;48.596;9.238;2022-10-15T10:32:22;16.90;99.90
21823;DHT22;11074;48.596;9.238;2022-10-15T10:34:53;17.00;99.90
21823;DHT22;11074;48.596;9.238;2022-10-15T10:37:20;16.90;99.90
21823;DHT22;11074;48.596;9.238;2022-10-15T10:39:52;17.00;99.90
21823;DHT22;11074;48.596;9.238;2022-10-15T10:42:24;17.00;99.90
21823;DHT22;11074;48.596;9.238;2022-10-15T10:44:55;17.10;99.90
21823;DHT22;11074;48.596;9.238;2022-10-15T10:47:35;17.10;99.90
21823;DHT22;11074;48.596;9.238;2022-10-15T10:50:33;17.00;99.90
21823;DHT22;11074;48.596;9.238;2022-10-15T10:53:22;17.00;99.90
21823;DHT22;11074;48.596;9.238;2022-10-15T10:55:50;17.10;99.90
21823;DHT22;11074;48.596;9.238;2022-10-15T10:58:20;17.20;99.90
21823;DHT22;11074;48.596;9.238;2022-10-15T11:00:49;17.30;99.90
21823;DHT22;11074;48.596;9.238;2022-10-15T11:12:22;17.30;99.90
21823;DHT22;11074;48.596;9.238;2022-10-15T11:15:16;17.30;99.90
21823;DHT22;11074;48.596;9.238;2022-10-15T11:18:33;17.40;99.90
21823;DHT22;11074;48.596;9.238;2022-10-15T11:24:34;17.30;99.90
21823;DHT22;11074;48.596;9.238;2022-10-15T11:29:39;17.30;99.90
21823;DHT22;11074;48.596;9.238;2022-10-15T11:32:43;17.30;99.90
21823;DHT22;11074;48.596;9.238;2022-10-15T11:41:16;17.50;99.90
21823;DHT22;11074;48.596;9.238;2022-10-15T11:44:05;17.60;99.90
21823;DHT22;11074;48.596;9.238;2022-10-15T11:55:43;17.60;99.90
21823;DHT22;11074;48.596;9.238;2022-10-15T11:58:34;17.70;99.90
21823;DHT22;11074;48.596;9.238;2022-10-15T12:01:21;18.00;99.90
21823;DHT22;11074;48.596;9.238;2022-10-15T12:03:57;18.10;99.90
21823;DHT22;11074;48.596;9.238;2022-10-15T12:06:32;18.10;99.90
21823;DHT22;11074;48.596;9.238;2022-10-15T12:09:02;18.20;99.90
21823;DHT22;11074;48.596;9.238;2022-10-15T12:11:38;18.30;99.90
21823;DHT22;11074;48.596;9.238;2022-10-15T12:14:21;18.40;99.90
21823;DHT22;11074;48.596;9.238;2022-10-15T12:17:00;18.60;99.90
21823;DHT22;11074;48.596;9.238;2022-10-15T12:19:55;18.90;99.90
21823;DHT22;11074;48.596;9.238;2022-10-15T12:22:42;19.00;99.90
21823;DHT22;11074;48.596;9.238;2022-10-15T12:28:00;18.80;99.90
21823;DHT22;11074;48.596;9.238;2022-10-15T12:30:33;18.70;99.90
21823;DHT22;11074;48.596;9.238;2022-10-15T12:33:03;18.50;99.90
21823;DHT22;11074;48.596;9.238;2022-10-15T12:36:00;18.50;99.90
21823;DHT22;11074;48.596;9.238;2022-10-15T12:38:35;18.50;99.90
21823;DHT22;11074;48.596;9.238;2022-10-15T12:41:10;18.50;99.90
21823;DHT22;11074;48.596;9.238;2022-10-15T12:43:50;18.50;99.90
21823;DHT22;11074;48.596;9.238;2022-10-15T12:46:36;18.50;99.90
21823;DHT22;11074;48.596;9.238;2022-10-15T12:51:53;18.30;99.90
21823;DHT22;11074;48.596;9.238;2022-10-15T12:54:33;18.30;99.90
21823;DHT22;11074;48.596;9.238;2022-10-15T13:02:51;18.40;99.90
21823;DHT22;11074;48.596;9.238;2022-10-15T13:08:01;18.40;99.90
21823;DHT22;11074;48.596;9.238;2022-10-15T13:10:37;18.40;99.90
21823;DHT22;11074;48.596;9.238;2022-10-15T13:13:11;18.50;99.90
21823;DHT22;11074;48.596;9.238;2022-10-15T13:15:40;18.50;99.90
21823;DHT22;11074;48.596;9.238;2022-10-15T13:18:10;18.50;99.90
21823;DHT22;11074;48.596;9.238;2022-10-15T13:20:39;18.50;99.90
21823;DHT22;11074;48.596;9.238;2022-10-15T13:23:20;18.60;99.90
21823;DHT22;11074;48.596;9.238;2022-10-15T13:25:52;18.60;99.90
21823;DHT22;11074;48.596;9.238;2022-10-15T13:28:36;18.60;99.90
21823;DHT22;11074;48.596;9.238;2022-10-15T13:31:23;18.50;99.90
21823;DHT22;11074;48.596;9.238;2022-10-15T13:33:53;18.50;99.90
21823;DHT22;11074;48.596;9.238;2022-10-15T13:36:29;18.40;99.90
21823;DHT22;11074;48.596;9.238;2022-10-15T13:39:00;18.40;99.90
21823;DHT22;11074;48.596;9.238;2022-10-15T13:41:37;18.40;99.90
21823;DHT22;11074;48.596;9.238;2022-10-15T13:44:04;18.40;99.90
21823;DHT22;11074;48.596;9.238;2022-10-15T13:46:33;18.40;99.90
21823;DHT22;11074;48.596;9.238;2022-10-15T13:49:08;18.30;99.90
21823;DHT22;11074;48.596;9.238;2022-10-15T13:51:48;18.30;99.90
21823;DHT22;11074;48.596;9.238;2022-10-15T13:54:19;18.20;99.90
21823;DHT22;11074;48.596;9.238;2022-10-15T13:56:53;18.20;99.90
21823;DHT22;11074;48.596;9.238;2022-10-15T13:59:22;18.30;99.90
21823;DHT22;11074;48.596;9.238;2022-10-15T14:01:58;18.30;99.90
21823;DHT22;11074;48.596;9.238;2022-10-15T14:04:28;18.30;99.90
21823;DHT22;11074;48.596;9.238;2022-10-15T14:07:17;18.40;99.90
21823;DHT22;11074;48.596;9.238;2022-10-15T14:09:47;18.40;99.90
21823;DHT22;11074;48.596;9.238;2022-10-15T14:12:13;18.30;99.90
21823;DHT22;11074;48.596;9.238;2022-10-15T14:14:40;18.20;99.90
21823;DHT22;11074;48.596;9.238;2022-10-15T14:17:12;18.20;99.90
21823;DHT22;11074;48.596;9.238;2022-10-15T14:19:55;18.20;99.90
21823;DHT22;11074;48.596;9.238;2022-10-15T14:22:26;18.10;99.90
21823;DHT22;11074;48.596;9.238;2022-10-15T14:24:53;18.10;99.90
21823;DHT22;11074;48.596;9.238;2022-10-15T14:27:27;18.10;99.90
21823;DHT22;11074;48.596;9.238;2022-10-15T14:29:58;18.10;99.90
21823;DHT22;11074;48.596;9.238;2022-10-15T14:32:29;18.10;99.90
21823;DHT22;11074;48.596;9.238;2022-10-15T14:35:28;18.10;99.90
21823;DHT22;11074;48.596;9.238;2022-10-15T14:38:00;18.10;99.90
21823;DHT22;11074;48.596;9.238;2022-10-15T14:40:39;18.10;99.90
21823;DHT22;11074;48.596;9.238;2022-10-15T14:43:16;18.10;99.90
21823;DHT22;11074;48.596;9.238;2022-10-15T14:46:02;18.10;99.90
21823;DHT22;11074;48.596;9.238;2022-10-15T14:48:34;18.10;99.90
21823;DHT22;11074;48.596;9.238;2022-10-15T14:51:07;18.10;99.90
21823;DHT22;11074;48.596;9.238;2022-10-15T14:53:44;18.10;99.90
21823;DHT22;11074;48.596;9.238;2022-10-15T14:58:52;18.10;99.90
21823;DHT22;11074;48.596;9.238;2022-10-15T15:01:21;18.20;99.90
21823;DHT22;11074;48.596;9.238;2022-10-15T15:03:53;18.10;99.90
21823;DHT22;11074;48.596;9.238;2022-10-15T15:06:20;18.10;99.90
21823;DHT22;11074;48.596;9.238;2022-10-15T15:08:46;18.10;99.90
21823;DHT22;11074;48.596;9.238;2022-10-15T15:11:21;18.10;99.90
21823;DHT22;11074;48.596;9.238;2022-10-15T15:13:49;18.10;99.90
21823;DHT22;11074;48.596;9.238;2022-10-15T15:16:17;18.10;99.90
21823;DHT22;11074;48.596;9.238;2022-10-15T15:18:44;18.10;99.90
21823;DHT22;11074;48.596;9.238;2022-10-15T15:21:15;18.10;99.90
21823;DHT22;11074;48.596;9.238;2022-10-15T15:23:45;18.20;99.90
21823;DHT22;11074;48.596;9.238;2022-10-15T15:26:11;18.20;99.90
21823;DHT22;11074;48.596;9.238;2022-10-15T15:28:37;18.30;99.90
21823;DHT22;11074;48.596;9.238;2022-10-15T15:31:06;18.20;99.90
21823;DHT22;11074;48.596;9.238;2022-10-15T15:33:36;18.30;99.90
21823;DHT22;11074;48.596;9.238;2022-10-15T15:36:05;18.20;99.90
21823;DHT22;11074;48.596;9.238;2022-10-15T15:38:35;18.30;99.90
21823;DHT22;11074;48.596;9.238;2022-10-15T15:41:19;18.30;99.90
21823;DHT22;11074;48.596;9.238;2022-10-15T15:43:47;18.30;99.90
21823;DHT22;11074;48.596;9.238;2022-10-15T15:46:13;18.30;99.90
21823;DHT22;11074;48.596;9.238;2022-10-15T15:48:39;18.20;99.90
21823;DHT22;11074;48.596;9.238;2022-10-15T15:51:14;18.10;99.90
21823;DHT22;11074;48.596;9.238;2022-10-15T15:53:45;18.10;99.90
21823;DHT22;11074;48.596;9.238;2022-10-15T15:56:12;18.00;99.90
21823;DHT22;11074;48.596;9.238;2022-10-15T15:58:37;18.00;99.90
21823;DHT22;11074;48.596;9.238;2022-10-15T16:01:03;18.00;99.90
21823;DHT22;11074;48.596;9.238;2022-10-15T16:03:29;18.00;99.90
21823;DHT22;11074;48.596;9.238;2022-10-15T16:05:55;18.00;99.90
21823;DHT22;11074;48.596;9.238;2022-10-15T16:08:20;18.00;99.90
21823;DHT22;11074;48.596;9.238;2022-10-15T16:10:46;18.00;99.90
21823;DHT22;11074;48.596;9.238;2022-10-15T16:13:12;17.90;99.90
21823;DHT22;11074;48.596;9.238;2022-10-15T16:15:37;17.90;99.90
21823;DHT22;11074;48.596;9.238;2022-10-15T16:18:03;17.90;99.90
21823;DHT22;11074;48.596;9.238;2022-10-15T16:20:30;17.80;99.90
21823;DHT22;11074;48.596;9.238;2022-10-15T16:22:55;17.80;99.90
21823;DHT22;11074;48.596;9.238;2022-10-15T16:25:21;17.80;99.90
21823;DHT22;11074;48.596;9.238;2022-10-15T16:27:47;17.80;99.90
21823;DHT22;11074;48.596;9.238;2022-10-15T16:30:14;17.80;99.90
21823;DHT22;11074;48.596;9.238;2022-10-15T16:32:40;17.70;99.90
21823;DHT22;11074;48.596;9.238;2022-10-15T16:35:06;17.70;99.90
21823;DHT22;11074;48.596;9.238;2022-10-15T16:37:32;17.70;99.90
21823;DHT22;11074;48.596;9.238;2022-10-15T16:39:58;17.70;99.90
21823;DHT22;11074;48.596;9.238;2022-10-15T16:42:24;17.70;99.90
21823;DHT22;11074;48.596;9.238;2022-10-15T16:44:49;17.60;99.90
21823;DHT22;11074;48.596;9.238;2022-10-15T16:47:17;17.70;99.90
21823;DHT22;11074;48.596;9.238;2022-10-15T16:49:43;17.70;99.90
21823;DHT22;11074;48.596;9.238;2022-10-15T16:52:09;17.60;99.90
21823;DHT22;11074;48.596;9.238;2022-10-15T16:54:35;17.60;99.90
21823;DHT22;11074;48.596;9.238;2022-10-15T16:57:01;17.60;99.90
21823;DHT22;11074;48.596;9.238;2022-10-15T16:59:27;17.60;99.90
21823;DHT22;11074;48.596;9.238;2022-10-15T17:01:53;17.60;99.90
21823;DHT22;11074;48.596;9.238;2022-10-15T17:04:19;17.60;99.90
21823;DHT22;11074;48.596;9.238;2022-10-15T17:06:48;17.60;99.90
21823;DHT22;11074;48.596;9.238;2022-10-15T17:09:14;17.60;99.90
21823;DHT22;11074;48.596;9.238;2022-10-15T17:11:41;17.60;99.90
21823;DHT22;11074;48.596;9.238;2022-10-15T17:14:10;17.60;99.90
21823;DHT22;11074;48.596;9.238;2022-10-15T17:16:46;17.60;99.90
21823;DHT22;11074;48.596;9.238;2022-10-15T17:19:16;17.60;99.90
21823;DHT22;11074;48.596;9.238;2022-10-15T17:21:44;17.50;99.90
21823;DHT22;11074;48.596;9.238;2022-10-15T17:24:11;17.50;99.90
21823;DHT22;11074;48.596;9.238;2022-10-15T17:26:39;17.50;99.90
21823;DHT22;11074;48.596;9.238;2022-10-15T17:29:09;17.50;99.90
21823;DHT22;11074;48.596;9.238;2022-10-15T17:31:40;17.50;99.90
21823;DHT22;11074;48.596;9.238;2022-10-15T17:34:09;17.40;99.90